Last 100 IPOs

Company Symbol Industry Offer Date Shares (millions) Offer Price 1st Day Close Current Price Return SCOOP Rating
Select Energy Services WTTR 4/21/2017 8.7 $14.00 $14.02 $15.28 9.14% S/O
Cadence Bancorporation CADE Financials 4/13/2017 7.5 $20.00 $0.00 $22.45 12.25% S/O
Tocagen TOCA Health Care 4/13/2017 8.5 $10.00 $12.45 $13.40 34.00% S/O
Warrior Met Coal HCC Basic Materials 4/13/2017 16.7 $19.00 $18.00 $18.71 -1.53% S/O
Yext YEXT Technology 4/13/2017 10.5 $11.00 $13.41 $13.74 24.91% S/O
Netshoes (Cayman) Ltd. NETS Consumer Goods 4/12/2017 8.3 $18.00 $16.10 $12.73 -29.28% S/O
Azul S.A. AZUL Consumer Services 4/11/2017 28.5 $20.06 $21.50 $23.22 15.75% S/O
Okta OKTA Technology 4/7/2017 11.0 $17.00 $23.51 $23.94 40.82% S/O
Elevate Credit ELVT Financials 4/6/2017 12.4 $6.50 $7.76 $8.24 26.77% S/O
Schneider National SNDR Industrials 4/6/2017 29.0 $19.00 $19.00 $19.29 1.53% S/O
Hess Midstream Partners LP HESM Oil & Gas 4/5/2017 14.8 $23.00 $25.60 $25.43 10.57% S/O
Alteryx AYX Technology 3/24/2017 9.0 $14.00 $15.50 $14.80 5.71% S/O
MuleSoft MULE Technology 3/17/2017 13.0 $17.00 $24.75 $22.00 29.41% S/O
ProPetro Holding PUMP Oil & Gas 3/17/2017 25.0 $14.00 $14.50 $13.53 -3.36% S/O
Canada Goose Holdings GOOS Consumer Goods 3/16/2017 20.0 $12.78 $16.08 $15.92 24.57% S/O
Ardagh Group S.A. ARD Industrials 3/15/2017 16.2 $19.00 $22.91 $21.28 12.00% S/O
Presidio, Inc. PSDO Technology 3/10/2017 16.7 $14.00 $14.25 $15.34 9.57% S/O
BeyondSpring BYSI Health Care 3/9/2017 0.2 $20.00 $16.80 $21.62 8.10% S/O
J.Jill JILL Consumer Goods 3/9/2017 11.7 $13.00 $12.65 $13.30 2.31% S/O
Snap SNAP Technology 3/2/2017 200.0 $17.00 $24.48 $21.20 24.71% S/O
Hamilton Lane HLNE Financials 3/1/2017 11.9 $16.00 $18.02 $18.54 15.88% S/O
Clipper Realty CLPR Financials 2/10/2017 5.7 $13.50 $13.50 $11.00 -18.52% S/O
Foundation Building Materials FBM Consumer Services 2/10/2017 12.8 $14.00 $15.50 $16.07 14.79% S/O
Sachem Capital SACH Financials 2/10/2017 2.6 $5.00 $5.04 $5.18 3.60% S/O
Kimbell Royalty Partners, LP KRP Oil & Gas 2/3/2017 5.0 $18.00 $20.64 $18.49 2.72% S/O
Ramaco Resources METC Basic Materials 2/3/2017 6.0 $13.50 $13.55 $7.59 -43.78% S/O
Invitation Homes INVH Financials 2/1/2017 77.0 $20.00 $20.00 $21.64 8.20% S/O
Laureate Education LAUR Consumer Services 2/1/2017 35.0 $14.00 $13.25 $14.26 1.86% S/O
Jagged Peak Energy JAG Oil & Gas 1/27/2017 31.6 $15.00 $14.33 $11.65 -22.33% S/O
JELD-WEN Holding JELD Basic Materials 1/27/2017 25.0 $23.00 $26.12 $33.60 46.09% S/O
Jounce Therapeutics JNCE Health Care 1/27/2017 6.5 $16.00 $17.25 $24.64 54.00% S/O
REV Group REVG Consumer Goods 1/27/2017 12.5 $22.00 $25.00 $28.90 31.36% S/O
AnaptysBio ANAB Health Care 1/26/2017 5.0 $15.00 $17.00 $24.78 65.20% S/O
ObsEva SA OBSV Health Care 1/26/2017 6.5 $15.00 $11.65 $6.50 -56.67% S/O
Keane Group FRAC Oil & Gas 1/20/2017 26.8 $19.00 $21.65 $13.87 -27.00% S/O
trivago N.V. TRVG Technology 12/16/2016 26.1 $11.00 $11.85 $15.02 36.55% S/O
WildHorse Resource Development WRD Oil & Gas 12/14/2016 27.5 $15.00 $15.06 $10.63 -29.13% S/O
Athene Holding Ltd. ATH Financials 12/9/2016 27.0 $40.00 $44.05 $53.75 34.38% S/O
Ichor Holdings, Ltd. ICHR Technology 12/9/2016 5.9 $9.00 $9.77 $18.93 110.33% S/O
SenesTech SNES Basic Materials 12/8/2016 1.9 $8.00 $8.16 $7.51 -6.13% S/O
Polar Power POLA Industrials 12/7/2016 2.4 $7.00 $9.00 $7.34 4.86% S/O
Innovative Industrial Properties IIPR Financials 12/1/2016 3.4 $20.00 $19.15 $17.51 -12.45% S/O
Smart Sand SND Basic Materials 11/4/2016 11.7 $11.00 $10.99 $12.67 15.18% S/O
GDS Holdings Ltd. GDS Technology 11/2/2016 19.3 $10.00 $10.41 $8.09 -19.10% S/O
Acushnet Holdings GOLF Consumer Goods 10/28/2016 19.3 $17.00 $17.95 $18.13 6.65% S/O
BlackLine BL Technology 10/28/2016 8.6 $17.00 $23.70 $32.41 90.65% S/O
Quantenna Communications QTNA Technology 10/28/2016 6.7 $16.00 $15.50 $18.17 13.56% S/O
Myovant Sciences Ltd. MYOV Health Care 10/27/2016 14.5 $15.00 $13.26 $12.24 -18.40% S/O
ZTO Express (Cayman) ZTO Industrials 10/27/2016 72.1 $19.50 $16.57 $13.08 -32.92% S/O
Ra Pharmaceuticals RARX Health Care 10/26/2016 7.1 $13.00 $13.00 $22.88 76.00% S/O
Forterra FRTA Industrials 10/20/2016 18.4 $18.00 $16.50 $18.59 3.28% S/O
iRhythm Technologies IRTC Health Care 10/20/2016 6.3 $17.00 $26.05 $33.50 97.06% S/O
CRISPR Therapeutics AG CRSP Health Care 10/19/2016 4.0 $14.00 $14.00 $16.58 18.43% S/O
Mammoth Energy Services TUSK Oil & Gas 10/14/2016 7.8 $15.00 $13.26 $19.10 27.33% S/O
Azure Power Global AZRE Utilities 10/12/2016 3.4 $18.00 $14.60 $16.39 -8.94% S/O
Extraction Oil & Gas XOG Oil & Gas 10/12/2016 33.3 $19.00 $21.85 $16.58 -12.74% S/O
AzurRx BioPharma AZRX Health Care 10/11/2016 1.0 $5.50 $4.98 $3.84 -30.18% S/O
Camping World Holdings CWH Consumer Services 10/7/2016 11.4 $22.00 $22.50 $31.02 41.00% S/O
Everspin Technologies MRAM Technology 10/7/2016 5.0 $8.00 $8.02 $9.29 16.13% S/O
Advanced Disposal Services ADSW Consumer Services 10/6/2016 19.3 $18.00 $0.00 $23.62 31.22% S/O
AquaVenture Holdings WAAS Consumer Goods 10/6/2016 6.5 $18.00 $21.95 $18.13 0.72% S/O
Coupa Software COUP Technology 10/6/2016 7.4 $18.00 $0.00 $28.44 58.00% S/O
Obalon Therapeutics OBLN Health Care 10/6/2016 5.0 $15.00 $15.00 $11.10 -26.00% S/O
Nutanix NTNX Technology 9/30/2016 14.9 $16.00 $37.00 $16.08 0.50% S/O
Fulgent Genetics FLGT Health Care 9/29/2016 4.2 $9.00 $9.18 $10.59 17.67% S/O
MedEquities Realty Trust MRT Financials 9/29/2016 19.9 $12.00 $11.59 $11.99 -0.08% S/O
Tabula Rasa HealthCare TRHC Technology 9/29/2016 4.3 $12.00 $14.88 $13.42 11.83% S/O
AC Immune SA ACIU Health Care 9/23/2016 6.0 $11.00 $15.66 $9.60 -12.73% S/O
Apptio APTI Technology 9/23/2016 6.0 $16.00 $22.55 $12.71 -20.56% S/O
Gridsum Holding GSUM Technology 9/23/2016 6.7 $13.00 $15.75 $12.30 -5.38% S/O
Valvoline VVV Consumer Goods 9/23/2016 30.0 $22.00 $23.10 $22.82 3.73% S/O
CapStar Financial Holdings CSTR Financials 9/22/2016 2.6 $15.00 $15.90 $18.27 21.80% S/O
e.l.f. Beauty ELF Consumer Goods 9/22/2016 8.3 $17.00 $26.50 $27.44 61.41% S/O
Novan NOVN Health Care 9/21/2016 4.1 $11.00 $18.10 $5.28 -52.00% S/O
The Trade Desk TTD Technology 9/21/2016 4.7 $18.00 $30.10 $36.47 102.61% S/O
Everbridge EVBG Technology 9/16/2016 7.5 $12.00 $15.25 $22.84 90.33% S/O
FB Financial FBK Financials 9/16/2016 5.9 $19.00 $20.75 $35.71 87.95% S/O
Noble Midstream Partners LP NBLX Financials 9/15/2016 12.5 $22.50 $26.20 $49.99 122.18% S/O
Airgain AIRG Consumer Goods 8/12/2016 1.5 $8.00 $8.00 $14.87 85.88% S/O
Medpace Holdings MEDP Health Care 8/11/2016 7.0 $23.00 $27.79 $30.96 34.61% S/O
Protagonist Therapeutics PTGX Health Care 8/11/2016 7.5 $12.00 $11.70 $10.11 -15.75% S/O
Atomera ATOM Technology 8/5/2016 3.2 $7.50 $8.08 $6.28 -16.27% S/O
Gemphire Therapeutics GEMP Health Care 8/5/2016 3.0 $10.00 $9.20 $10.90 9.00% S/O
At Home Group HOME Consumer Goods 8/4/2016 8.7 $15.00 $15.00 $16.73 11.53% S/O
First Hawaiian FHB Financials 8/4/2016 21.1 $23.00 $24.25 $30.32 31.83% S/O
Talend SA TLND Technology 7/29/2016 5.3 $18.00 $25.50 $30.07 67.06% S/O
Kinsale Capital Group KNSL Financials 7/28/2016 6.6 $16.00 $18.35 $34.91 118.19% S/O
Tactile Systems Technology TCMD Health Care 7/28/2016 4.0 $10.00 $11.08 $19.07 90.70% S/O
Kadmon Holdings KDMN Health Care 7/26/2016 6.3 $12.00 $9.70 $2.48 -79.33% S/O
TPI Composites TPIC Utilities 7/22/2016 6.3 $11.00 $13.56 $20.49 86.27% S/O
IMPINJ PI Industrials 7/21/2016 4.8 $14.00 $17.97 $36.77 162.64% S/O
Patheon N.V. PTHN Health Care 7/21/2016 29.8 $21.00 $24.99 $25.35 20.71% S/O
Audentes Therapeutics BOLD Health Care 7/20/2016 5.0 $15.00 $15.13 $14.43 -3.80% S/O
AdvancePierre Foods Holdings APFH Consumer Goods 7/15/2016 18.6 $21.00 $24.00 $36.67 74.62% S/O
LINE Corporation LN Technology 7/14/2016 35.0 $32.84 $41.58 $36.04 9.74% S/O
Syros Pharmaceuticals SYRS Health Care 6/30/2016 4.0 $12.50 $18.15 $15.29 22.32% S/O
Twilio TWLO Technology 6/23/2016 10.0 $15.00 $28.79 $30.93 106.20% S/O
Selecta Biosciences SELB Health Care 6/22/2016 5.0 $14.00 $14.00 $13.42 -4.14% S/O
Atkore International Group ATKR Industrials 6/10/2016 12.0 $16.00 $16.00 $25.87 61.69% S/O
China Online Education Group COE Consumer Services 6/10/2016 2.4 $19.00 $18.98 $17.21 -9.42% S/O